Time;durP1;ratioP1;P1;durP2;ratioP2;P2;SDS_P1;SDS_P2;PMS_P1;PMS_P2;Temp;Humidity;BMP_temperature;BMP_pressure;BME280_temperature;BME280_humidity;BME280_pressure;Samples;Min_cycle;Max_cycle;Signal;HPM_P1;HPM_P2
2022/07/03 00:00:20;;;;;;;4.10;3.13;;;20.30;53.80;;;;;;5013803;28;20477;-64
2022/07/03 00:02:47;;;;;;;3.80;3.23;;;20.30;53.90;;;;;;5031186;28;20550;-64
2022/07/03 00:05:15;;;;;;;2.80;2.57;;;20.30;54.00;;;;;;5043920;28;20460;-64
2022/07/03 00:07:42;;;;;;;3.97;2.80;;;20.30;54.10;;;;;;5052069;28;20478;-64
2022/07/03 00:10:10;;;;;;;3.53;3.00;;;20.20;54.10;;;;;;5046768;28;20517;-64
2022/07/03 00:12:37;;;;;;;3.67;2.80;;;20.20;54.40;;;;;;5031713;28;21032;-64
2022/07/03 00:15:07;;;;;;;3.47;2.33;;;20.10;54.50;;;;;;5033149;28;20497;-64
2022/07/03 00:17:35;;;;;;;5.23;2.80;;;20.10;54.80;;;;;;5031975;28;20457;-64
2022/07/03 00:20:02;;;;;;;2.77;2.40;;;20.00;55.00;;;;;;5013584;28;20476;-64
2022/07/03 00:22:33;;;;;;;2.00;1.90;;;19.90;55.10;;;;;;5013808;28;20470;-64
2022/07/03 00:25:05;;;;;;;3.40;2.30;;;19.80;55.30;;;;;;5053801;28;20846;-64
2022/07/03 00:27:34;;;;;;;2.67;2.47;;;19.70;55.50;;;;;;5052082;28;20492;-64
2022/07/03 00:30:04;;;;;;;2.63;2.43;;;19.70;55.80;;;;;;5043714;28;20456;-64
2022/07/03 00:32:33;;;;;;;2.80;2.30;;;19.60;56.00;;;;;;5053261;28;20508;-63
2022/07/03 00:35:01;;;;;;;3.43;2.43;;;19.50;56.10;;;;;;5022442;28;20480;-63
2022/07/03 00:37:28;;;;;;;2.20;2.00;;;19.50;56.30;;;;;;5043726;28;20494;-64
2022/07/03 00:39:55;;;;;;;2.33;2.10;;;19.40;56.50;;;;;;5044693;28;20504;-64
2022/07/03 00:42:23;;;;;;;2.90;2.30;;;19.40;56.70;;;;;;5036090;28;20485;-64
2022/07/03 00:44:51;;;;;;;2.30;2.10;;;19.30;56.90;;;;;;5057199;28;20444;-64
2022/07/03 00:47:20;;;;;;;2.33;1.80;;;19.30;57.20;;;;;;5056796;28;20448;-63
2022/07/03 00:49:51;;;;;;;2.33;2.13;;;19.20;57.30;;;;;;5025131;28;20459;-64
2022/07/03 00:52:20;;;;;;;2.23;2.03;;;19.20;57.60;;;;;;5056353;28;20529;-64
2022/07/03 00:54:59;;;;;;;3.10;2.30;;;19.10;57.70;;;;;;5056190;28;20483;-63
2022/07/03 00:57:28;;;;;;;2.50;2.30;;;19.10;58.00;;;;;;5042803;28;20555;-64
2022/07/03 00:59:57;;;;;;;3.30;2.10;;;19.00;58.20;;;;;;5052822;28;20588;-64
2022/07/03 01:02:35;;;;;;;2.40;2.20;;;19.00;58.40;;;;;;5038945;28;20492;-64
2022/07/03 01:05:20;;;;;;;2.37;2.17;;;19.00;58.60;;;;;;5039737;28;20461;-65
2022/07/03 01:07:58;;;;;;;5.87;2.60;;;18.90;58.80;;;;;;5051421;28;20484;-64
2022/07/03 01:10:37;;;;;;;2.20;2.00;;;18.90;59.00;;;;;;5045705;28;20489;-65
2022/07/03 01:13:10;;;;;;;2.27;2.10;;;18.80;59.20;;;;;;5037561;28;20484;-64
2022/07/03 01:15:43;;;;;;;3.47;2.17;;;18.80;59.30;;;;;;5057475;28;20464;-64
2022/07/03 01:18:24;;;;;;;3.73;2.67;;;18.80;59.60;;;;;;5051457;28;20463;-64
2022/07/03 01:20:59;;;;;;;3.10;2.80;;;18.70;59.80;;;;;;5025429;28;20457;-64
2022/07/03 01:23:41;;;;;;;4.70;2.20;;;18.70;60.00;;;;;;5054521;28;20483;-64
2022/07/03 01:26:13;;;;;;;4.20;2.33;;;18.70;60.20;;;;;;5056120;28;20459;-64
2022/07/03 01:28:42;;;;;;;2.20;1.90;;;18.70;60.50;;;;;;5042551;28;20496;-64
2022/07/03 01:31:15;;;;;;;3.23;2.93;;;18.60;60.70;;;;;;5036581;28;20445;-64
2022/07/03 01:33:43;;;;;;;2.30;2.10;;;18.60;60.90;;;;;;5036085;28;20477;-64
2022/07/03 01:36:14;;;;;;;2.60;2.40;;;18.60;61.10;;;;;;5039422;28;20480;-64
2022/07/03 01:38:42;;;;;;;5.93;3.07;;;18.60;61.40;;;;;;5037294;28;20457;-64
2022/07/03 01:41:12;;;;;;;2.77;2.33;;;18.50;62.20;;;;;;5050519;28;20469;-64
2022/07/03 01:43:45;;;;;;;2.70;2.50;;;18.50;61.80;;;;;;5044882;28;20519;-64
2022/07/03 01:46:14;;;;;;;4.43;3.00;;;18.50;62.00;;;;;;5036958;28;20460;-64
2022/07/03 01:48:44;;;;;;;4.07;2.97;;;18.50;62.30;;;;;;5034839;28;20461;-64
2022/07/03 01:51:14;;;;;;;3.10;2.80;;;18.40;62.40;;;;;;5037691;28;20468;-64
2022/07/03 01:53:46;;;;;;;3.17;2.87;;;18.40;62.60;;;;;;5054399;28;20546;-64
2022/07/03 01:56:15;;;;;;;2.60;2.40;;;18.40;63.00;;;;;;5055816;28;20460;-64
2022/07/03 01:58:43;;;;;;;5.23;2.40;;;18.30;63.10;;;;;;5054262;28;20460;-64
2022/07/03 02:01:21;;;;;;;3.07;2.67;;;18.30;63.40;;;;;;5048059;28;20480;-64
2022/07/03 02:03:52;;;;;;;3.10;2.80;;;18.30;63.60;;;;;;5048888;28;20538;-64
2022/07/03 02:06:29;;;;;;;2.60;2.13;;;18.30;63.80;;;;;;5038070;28;21022;-64
2022/07/03 02:09:02;;;;;;;5.90;2.40;;;18.30;63.90;;;;;;5051096;28;20467;-63
2022/07/03 02:11:36;;;;;;;3.07;2.80;;;18.30;64.00;;;;;;5055117;28;20428;-63
2022/07/03 02:14:13;;;;;;;3.77;2.50;;;18.30;64.20;;;;;;5037300;28;20481;-63
2022/07/03 02:16:52;;;;;;;4.17;2.97;;;18.20;64.40;;;;;;5034299;28;20808;-62
2022/07/03 02:19:22;;;;;;;3.33;2.47;;;18.20;64.80;;;;;;5038901;28;20460;-63
2022/07/03 02:21:52;;;;;;;3.53;2.83;;;18.10;65.10;;;;;;5053444;28;20512;-63
2022/07/03 02:24:20;;;;;;;2.57;2.37;;;18.10;65.50;;;;;;5053622;28;20498;-63
2022/07/03 02:26:55;;;;;;;2.57;2.37;;;18.00;65.90;;;;;;5053536;28;20544;-64
2022/07/03 02:29:32;;;;;;;3.40;2.90;;;18.00;66.30;;;;;;5049351;28;20460;-64
2022/07/03 02:32:03;;;;;;;2.47;2.10;;;18.00;66.70;;;;;;5054719;28;20482;-64
2022/07/03 02:34:32;;;;;;;2.70;2.50;;;17.90;67.00;;;;;;5053325;28;20460;-64
2022/07/03 02:37:07;;;;;;;4.20;2.67;;;17.90;67.20;;;;;;5053271;28;20902;-64
2022/07/03 02:39:44;;;;;;;2.90;2.50;;;17.90;67.50;;;;;;5052710;28;21009;-65
2022/07/03 02:42:22;;;;;;;2.73;2.50;;;17.90;67.80;;;;;;5039354;28;20484;-65
2022/07/03 02:44:54;;;;;;;2.77;2.57;;;17.90;67.90;;;;;;5053729;28;20456;-65
2022/07/03 02:47:31;;;;;;;5.33;2.60;;;17.90;68.00;;;;;;5053775;28;20447;-64
2022/07/03 02:50:05;;;;;;;2.60;2.40;;;17.90;68.00;;;;;;5052687;28;20464;-63
2022/07/03 02:52:43;;;;;;;2.40;2.20;;;18.00;68.00;;;;;;5053710;28;20527;-63
2022/07/03 02:55:27;;;;;;;3.33;2.67;;;18.00;67.90;;;;;;5049316;28;20477;-63
2022/07/03 02:58:05;;;;;;;3.00;2.10;;;18.10;67.90;;;;;;5042447;28;20509;-63
2022/07/03 03:00:38;;;;;;;2.60;2.20;;;18.10;67.80;;;;;;5053272;28;20613;-64
2022/07/03 03:03:05;;;;;;;2.50;2.30;;;18.20;67.70;;;;;;5053157;28;20516;-63
2022/07/03 03:05:41;;;;;;;6.20;2.50;;;18.30;67.60;;;;;;5054609;28;20820;-64
2022/07/03 03:08:19;;;;;;;2.63;2.27;;;18.30;67.40;;;;;;5039430;28;20464;-64
2022/07/03 03:10:47;;;;;;;2.37;1.90;;;18.30;67.20;;;;;;5052933;28;20463;-63
2022/07/03 03:13:19;;;;;;;2.63;2.30;;;18.40;67.10;;;;;;5053944;28;20542;-63
2022/07/03 03:15:56;;;;;;;2.17;2.00;;;18.40;67.00;;;;;;5052755;28;20464;-64
2022/07/03 03:18:27;;;;;;;2.90;2.10;;;18.40;67.00;;;;;;5036865;28;20461;-62
2022/07/03 03:21:00;;;;;;;2.60;2.37;;;18.40;67.00;;;;;;5043690;28;20439;-63
2022/07/03 03:23:39;;;;;;;3.00;2.30;;;18.40;67.00;;;;;;5043203;28;20507;-63
2022/07/03 03:26:06;;;;;;;3.57;2.13;;;18.40;67.00;;;;;;5048729;28;21160;-61
2022/07/03 03:28:35;;;;;;;2.13;1.73;;;18.30;67.10;;;;;;5037576;28;20456;-63
2022/07/03 03:31:07;;;;;;;2.27;2.17;;;18.30;67.10;;;;;;5041004;28;20459;-64
2022/07/03 03:33:40;;;;;;;2.27;1.80;;;18.30;67.30;;;;;;5046326;28;20476;-64
2022/07/03 03:36:09;;;;;;;2.20;2.00;;;18.30;67.30;;;;;;5056994;28;22119;-62
2022/07/03 03:38:36;;;;;;;3.90;1.97;;;18.30;67.30;;;;;;5046705;28;20523;-63
2022/07/03 03:41:05;;;;;;;2.23;1.80;;;18.30;67.30;;;;;;5034692;28;20491;-64
2022/07/03 03:43:32;;;;;;;5.90;4.63;;;18.30;67.10;;;;;;5046170;28;20476;-63
2022/07/03 03:46:02;;;;;;;3.10;2.80;;;18.40;67.00;;;;;;5033746;28;20499;-63
2022/07/03 03:48:30;;;;;;;4.23;2.43;;;18.40;66.80;;;;;;5052468;28;20510;-63
2022/07/03 03:50:58;;;;;;;7.80;3.33;;;18.40;66.50;;;;;;5051829;28;20932;-63
2022/07/03 03:53:26;;;;;;;4.13;2.37;;;18.50;66.40;;;;;;5051233;28;20525;-63
2022/07/03 03:55:59;;;;;;;2.40;1.80;;;18.60;66.20;;;;;;5051256;28;21082;-63
2022/07/03 03:58:26;;;;;;;3.87;3.10;;;18.70;65.90;;;;;;5046775;28;20448;-63
2022/07/03 04:00:54;;;;;;;3.97;2.30;;;19.10;65.10;;;;;;5037274;28;20548;-63
2022/07/03 04:03:22;;;;;;;3.67;2.20;;;19.70;63.60;;;;;;5051652;28;20472;-63
2022/07/03 04:05:50;;;;;;;2.53;1.93;;;20.30;61.60;;;;;;5052514;28;20440;-62
2022/07/03 04:09:58;;;;;;;2.60;2.07;;;21.30;58.10;;;;;;5109825;27;20626;-62
2022/07/03 04:12:25;;;;;;;3.20;1.80;;;21.80;57.00;;;;;;5110488;28;20476;-64
2022/07/03 04:14:53;;;;;;;3.23;1.70;;;22.30;55.60;;;;;;5102703;28;20466;-64
2022/07/03 04:17:20;;;;;;;2.97;2.77;;;22.70;54.40;;;;;;5090164;28;20511;-64
2022/07/03 04:19:47;;;;;;;2.77;2.13;;;23.00;53.50;;;;;;5093635;28;21001;-64
2022/07/03 04:22:15;;;;;;;2.63;1.80;;;23.30;52.70;;;;;;5110383;28;20520;-65
2022/07/03 04:24:42;;;;;;;2.10;1.90;;;23.60;51.80;;;;;;5110313;28;20468;-64
2022/07/03 04:27:11;;;;;;;6.13;2.00;;;23.90;51.10;;;;;;5104311;28;20493;-65
2022/07/03 04:29:38;;;;;;;2.40;2.00;;;24.10;50.50;;;;;;5099157;28;20487;-64
2022/07/03 04:32:06;;;;;;;2.37;1.60;;;24.30;49.90;;;;;;5095945;28;20482;-65
2022/07/03 04:34:33;;;;;;;2.13;1.77;;;24.60;49.40;;;;;;5103008;28;20994;-65
2022/07/03 04:37:00;;;;;;;2.87;1.97;;;24.70;48.90;;;;;;5102759;28;20450;-65
2022/07/03 04:39:28;;;;;;;2.10;1.60;;;24.80;48.50;;;;;;5100944;28;20482;-65
2022/07/03 04:41:55;;;;;;;2.40;1.87;;;25.00;48.10;;;;;;5108309;28;20472;-65
2022/07/03 04:44:24;;;;;;;2.57;1.60;;;25.10;47.70;;;;;;5108626;28;20522;-65
2022/07/03 04:46:51;;;;;;;1.43;1.30;;;25.20;47.30;;;;;;5109380;28;20518;-65
2022/07/03 04:49:18;;;;;;;3.13;1.50;;;25.30;46.90;;;;;;5109406;28;20566;-65
2022/07/03 04:51:56;;;;;;;2.10;1.90;;;25.40;46.70;;;;;;5107984;28;20486;-64
2022/07/03 04:54:23;;;;;;;2.70;1.93;;;25.50;46.40;;;;;;5090459;28;21694;-65
2022/07/03 04:56:50;;;;;;;2.50;1.70;;;25.60;46.10;;;;;;5110592;28;20580;-63
2022/07/03 04:59:18;;;;;;;3.13;2.00;;;25.90;45.80;;;;;;5093118;28;20487;-65
2022/07/03 05:01:47;;;;;;;3.17;1.67;;;26.00;45.40;;;;;;5095951;28;20537;-65
2022/07/03 05:04:15;;;;;;;2.07;1.87;;;26.10;45.00;;;;;;5111019;28;20456;-66
2022/07/03 05:06:42;;;;;;;1.70;1.60;;;26.30;44.70;;;;;;5102517;28;20940;-65
2022/07/03 05:09:10;;;;;;;3.47;1.40;;;26.40;44.40;;;;;;5088228;28;20483;-65
2022/07/03 05:11:37;;;;;;;3.80;1.43;;;26.50;44.00;;;;;;5089387;28;20452;-65
2022/07/03 05:14:05;;;;;;;2.97;1.47;;;26.60;43.90;;;;;;5102338;28;20494;-65
2022/07/03 05:16:33;;;;;;;2.03;1.50;;;26.60;43.70;;;;;;5107631;28;20801;-66
2022/07/03 05:19:01;;;;;;;1.67;1.57;;;26.60;43.50;;;;;;5071702;28;20875;-66
2022/07/03 05:21:28;;;;;;;1.67;1.47;;;26.70;43.30;;;;;;5083073;28;20493;-66
2022/07/03 05:23:56;;;;;;;1.97;1.43;;;26.70;43.20;;;;;;5087634;28;20555;-66
2022/07/03 05:26:23;;;;;;;1.53;1.43;;;26.70;43.20;;;;;;5095053;28;20446;-66
2022/07/03 05:28:51;;;;;;;3.67;1.57;;;26.80;43.20;;;;;;5078487;28;20764;-66
2022/07/03 05:31:19;;;;;;;1.37;1.27;;;26.80;43.00;;;;;;5083434;28;20883;-66
2022/07/03 05:33:47;;;;;;;2.67;1.43;;;26.90;43.00;;;;;;5075257;28;20825;-66
2022/07/03 05:36:15;;;;;;;2.37;1.70;;;26.90;42.90;;;;;;5074826;28;20863;-66
2022/07/03 05:41:27;;;;;;;1.40;1.27;;;27.00;42.70;;;;;;5082834;28;20506;-66
2022/07/03 05:43:54;;;;;;;1.83;1.70;;;27.00;42.60;;;;;;5083573;28;20552;-66
2022/07/03 05:46:22;;;;;;;2.37;1.10;;;27.00;42.60;;;;;;5095377;28;20506;-66
2022/07/03 05:48:49;;;;;;;2.13;1.37;;;27.00;42.70;;;;;;5094348;28;20481;-66
2022/07/03 05:51:18;;;;;;;3.57;1.33;;;26.80;42.80;;;;;;5083559;28;20498;-66
2022/07/03 05:53:45;;;;;;;4.47;1.63;;;26.50;43.50;;;;;;5086885;28;20948;-65
2022/07/03 05:56:12;;;;;;;1.63;1.40;;;26.20;44.00;;;;;;5091491;28;20556;-65
2022/07/03 05:58:41;;;;;;;2.00;1.57;;;26.10;44.30;;;;;;5076394;28;20458;-65
2022/07/03 06:01:08;;;;;;;1.70;1.23;;;26.00;44.70;;;;;;5073409;28;20905;-65
2022/07/03 06:03:35;;;;;;;1.90;1.50;;;25.90;44.90;;;;;;5075037;28;20470;-64
2022/07/03 06:06:03;;;;;;;1.40;1.30;;;25.80;45.10;;;;;;5074875;28;20437;-64
2022/07/03 06:08:31;;;;;;;1.40;1.30;;;25.90;45.00;;;;;;5074841;28;20501;-66
2022/07/03 06:10:59;;;;;;;1.63;1.53;;;25.90;45.00;;;;;;5075312;28;20461;-66
2022/07/03 06:13:26;;;;;;;2.60;1.63;;;25.80;45.20;;;;;;5095056;28;20472;-66
2022/07/03 06:15:53;;;;;;;2.37;1.40;;;25.90;45.20;;;;;;5095017;28;20442;-66
2022/07/03 06:18:20;;;;;;;1.60;1.50;;;26.00;44.90;;;;;;5094888;28;20497;-66
2022/07/03 06:20:48;;;;;;;2.00;1.83;;;26.10;44.60;;;;;;5095276;28;20476;-66
2022/07/03 06:23:15;;;;;;;2.23;1.33;;;26.20;44.50;;;;;;5085420;28;20977;-66
2022/07/03 06:25:44;;;;;;;1.90;1.50;;;26.20;44.30;;;;;;5085148;28;20547;-66
2022/07/03 06:28:11;;;;;;;3.20;1.50;;;26.20;44.30;;;;;;5093789;28;20522;-65
2022/07/03 06:30:38;;;;;;;2.27;1.50;;;26.00;45.00;;;;;;5093796;28;20510;-66
2022/07/03 06:33:05;;;;;;;1.90;1.43;;;25.70;44.70;;;;;;5077459;28;20507;-65
2022/07/03 06:35:33;;;;;;;1.87;1.40;;;25.40;45.20;;;;;;5075362;28;20539;-66
2022/07/03 06:38:03;;;;;;;3.33;1.40;;;25.10;45.40;;;;;;5070354;28;20576;-64
2022/07/03 06:40:30;;;;;;;2.00;1.40;;;24.90;45.60;;;;;;5070023;28;20454;-65
2022/07/03 06:42:59;;;;;;;2.70;1.73;;;24.80;45.70;;;;;;5072010;28;20902;-63
2022/07/03 06:45:26;;;;;;;1.70;1.53;;;24.70;45.60;;;;;;5070642;28;20451;-63
2022/07/03 06:47:53;;;;;;;2.73;1.60;;;24.60;45.80;;;;;;5074391;28;20449;-64
2022/07/03 06:50:21;;;;;;;2.87;2.00;;;24.60;46.00;;;;;;5073688;28;20478;-63
2022/07/03 06:52:48;;;;;;;2.60;1.70;;;24.70;46.20;;;;;;5071093;28;20481;-62
2022/07/03 06:55:15;;;;;;;1.83;1.53;;;24.90;46.30;;;;;;5073707;28;20445;-64
2022/07/03 06:57:42;;;;;;;2.23;2.03;;;25.10;45.90;;;;;;5073711;28;20960;-64
2022/07/03 07:00:13;;;;;;;2.30;1.43;;;25.20;45.60;;;;;;5073780;28;20440;-64
2022/07/03 07:02:40;;;;;;;4.90;1.80;;;25.50;45.00;;;;;;5074010;28;20472;-64
2022/07/03 07:05:08;;;;;;;1.93;1.63;;;25.70;44.50;;;;;;5073762;28;20449;-65
2022/07/03 07:07:35;;;;;;;2.80;1.63;;;25.70;44.30;;;;;;5072323;28;20949;-64
2022/07/03 07:10:03;;;;;;;1.63;1.53;;;25.70;44.20;;;;;;5073698;28;20520;-65
2022/07/03 07:12:30;;;;;;;1.83;1.60;;;25.60;44.40;;;;;;5073717;28;20466;-64
2022/07/03 07:14:57;;;;;;;3.07;2.00;;;25.30;44.60;;;;;;5085096;28;20459;-64
2022/07/03 07:17:26;;;;;;;1.83;1.60;;;25.20;44.80;;;;;;5075475;28;20818;-65
2022/07/03 07:19:56;;;;;;;2.20;1.83;;;24.90;45.20;;;;;;5085037;28;20465;-65
2022/07/03 07:22:25;;;;;;;3.43;1.70;;;24.70;45.50;;;;;;5093592;28;20532;-65
2022/07/03 07:24:53;;;;;;;1.73;1.63;;;24.70;46.10;;;;;;5093518;28;20442;-64
2022/07/03 07:27:20;;;;;;;4.17;2.03;;;24.60;46.40;;;;;;5093321;28;20541;-64
2022/07/03 07:29:47;;;;;;;3.47;1.60;;;24.60;46.60;;;;;;5093717;28;20479;-64
2022/07/03 07:32:15;;;;;;;2.70;1.53;;;24.80;46.60;;;;;;5093260;28;20513;-65
2022/07/03 07:34:43;;;;;;;1.97;1.53;;;25.10;46.30;;;;;;5067159;28;20496;-65
2022/07/03 07:37:10;;;;;;;2.00;1.80;;;25.40;45.90;;;;;;5052968;28;20937;-65
2022/07/03 07:39:38;;;;;;;2.60;1.80;;;25.70;45.50;;;;;;5053044;28;20991;-64
2022/07/03 07:42:06;;;;;;;2.10;1.83;;;25.90;45.10;;;;;;5053169;28;20473;-64
2022/07/03 07:44:33;;;;;;;1.70;1.60;;;26.00;44.60;;;;;;5071601;28;20460;-65
2022/07/03 07:47:00;;;;;;;1.60;1.40;;;26.20;43.90;;;;;;5085619;28;20464;-65
2022/07/03 07:49:28;;;;;;;2.13;1.80;;;26.40;42.70;;;;;;5094014;28;20471;-65
2022/07/03 07:51:56;;;;;;;4.60;1.67;;;26.60;42.40;;;;;;5096586;28;20499;-65
2022/07/03 07:54:23;;;;;;;2.00;1.80;;;26.70;42.00;;;;;;5093874;28;20894;-64
2022/07/03 07:56:51;;;;;;;2.30;1.53;;;26.70;41.20;;;;;;5093026;28;20452;-66
2022/07/03 07:59:18;;;;;;;2.27;1.67;;;26.50;41.00;;;;;;5093575;28;20863;-64
2022/07/03 08:07:16;;;;;;;2.23;2.03;;;26.40;41.00;;;;;;5072128;28;20546;-64
2022/07/03 08:09:43;;;;;;;2.30;1.63;;;26.40;41.60;;;;;;5074740;28;20476;-64
2022/07/03 08:12:11;;;;;;;1.90;1.43;;;26.30;41.90;;;;;;5072823;28;20508;-64
2022/07/03 08:14:39;;;;;;;1.83;1.73;;;26.30;42.20;;;;;;5072797;28;20487;-65
2022/07/03 08:17:06;;;;;;;1.90;1.40;;;26.20;42.50;;;;;;5073135;28;20797;-64
2022/07/03 08:19:33;;;;;;;1.87;1.63;;;26.20;42.70;;;;;;5072643;28;20996;-65
2022/07/03 08:22:01;;;;;;;2.43;1.57;;;26.20;42.90;;;;;;5072499;28;20522;-66
2022/07/03 08:24:30;;;;;;;3.43;1.77;;;26.20;43.20;;;;;;5072729;28;20454;-65
2022/07/03 08:26:58;;;;;;;2.90;1.73;;;26.20;42.90;;;;;;5072749;28;20469;-65
2022/07/03 08:29:27;;;;;;;1.80;1.70;;;26.20;42.60;;;;;;5073238;28;20525;-65
2022/07/03 08:31:55;;;;;;;3.20;1.40;;;26.20;42.40;;;;;;5073123;28;20468;-65
2022/07/03 08:34:22;;;;;;;1.87;1.40;;;26.10;42.00;;;;;;5072532;28;20459;-65
2022/07/03 08:36:49;;;;;;;1.90;1.30;;;26.10;41.10;;;;;;5072738;28;20542;-65
2022/07/03 08:39:17;;;;;;;1.80;1.70;;;26.10;41.10;;;;;;5072600;28;20433;-65
2022/07/03 08:41:47;;;;;;;2.43;1.83;;;26.20;41.10;;;;;;5070186;28;21078;-65
2022/07/03 08:44:15;;;;;;;2.13;1.43;;;26.40;41.10;;;;;;5081643;28;20456;-64
2022/07/03 08:46:45;;;;;;;2.13;1.87;;;26.60;41.00;;;;;;5093116;28;20862;-64
2022/07/03 08:49:12;;;;;;;2.93;1.50;;;26.80;40.90;;;;;;5093278;28;20456;-64
2022/07/03 08:51:42;;;;;;;2.07;1.60;;;26.90;40.60;;;;;;5093442;28;20570;-65
2022/07/03 08:54:09;;;;;;;1.40;1.30;;;26.90;40.40;;;;;;5093277;28;20447;-65
2022/07/03 08:56:37;;;;;;;2.30;1.50;;;27.00;40.10;;;;;;5096198;28;20475;-65
2022/07/03 08:59:07;;;;;;;2.37;1.30;;;27.10;39.80;;;;;;5097211;28;20445;-65
2022/07/03 09:01:40;;;;;;;1.60;1.50;;;27.20;39.10;;;;;;5097482;28;20500;-64
2022/07/03 09:04:11;;;;;;;2.20;1.50;;;27.20;38.90;;;;;;5097297;28;20463;-64
2022/07/03 09:06:41;;;;;;;2.03;1.70;;;27.30;39.00;;;;;;5096935;28;20434;-65
2022/07/03 09:09:09;;;;;;;1.67;1.57;;;27.40;39.00;;;;;;5096115;28;20867;-63
2022/07/03 09:11:37;;;;;;;3.80;1.40;;;27.40;38.90;;;;;;5097362;28;20451;-65
2022/07/03 09:14:07;;;;;;;3.90;1.60;;;27.40;38.80;;;;;;5097059;28;20438;-64
2022/07/03 09:16:36;;;;;;;1.53;1.43;;;27.40;38.80;;;;;;5098388;28;20480;-65
2022/07/03 09:19:04;;;;;;;2.50;1.40;;;27.30;38.90;;;;;;5098393;28;20437;-65
2022/07/03 09:21:38;;;;;;;2.40;1.40;;;27.30;38.70;;;;;;5098878;28;20453;-64
2022/07/03 09:24:07;;;;;;;2.40;1.37;;;27.40;38.60;;;;;;5098359;28;20938;-65
2022/07/03 09:26:35;;;;;;;2.53;1.37;;;27.40;38.20;;;;;;5097381;28;20530;-65
2022/07/03 09:29:03;;;;;;;1.33;1.13;;;27.40;38.10;;;;;;5096568;28;20814;-64
2022/07/03 09:31:32;;;;;;;2.00;1.80;;;27.40;38.00;;;;;;5097853;28;20572;-65
2022/07/03 09:34:02;;;;;;;3.30;1.50;;;27.50;38.10;;;;;;5100028;28;20857;-64
2022/07/03 09:36:45;;;;;;;1.77;1.30;;;27.50;38.20;;;;;;5098440;28;20460;-64
2022/07/03 09:39:24;;;;;;;2.07;1.40;;;27.60;38.20;;;;;;5098341;28;20435;-65
2022/07/03 09:41:59;;;;;;;2.33;1.27;;;27.70;37.70;;;;;;5096473;28;20463;-65
2022/07/03 09:44:34;;;;;;;3.67;1.80;;;27.70;37.50;;;;;;5095647;28;20425;-65
2022/07/03 09:47:17;;;;;;;4.10;1.73;;;27.70;37.50;;;;;;5095189;28;21002;-65
2022/07/03 09:49:54;;;;;;;3.00;1.50;;;27.80;37.60;;;;;;5095576;28;20541;-65
2022/07/03 09:52:29;;;;;;;1.30;1.00;;;27.90;37.10;;;;;;5095170;28;20468;-65
2022/07/03 09:54:57;;;;;;;2.30;1.20;;;28.00;36.40;;;;;;5095550;28;20445;-65
2022/07/03 09:57:25;;;;;;;2.70;1.47;;;28.00;35.90;;;;;;5095401;28;20451;-65
2022/07/03 10:00:11;;;;;;;2.13;1.27;;;28.00;35.90;;;;;;5095504;28;20454;-67
2022/07/03 10:02:53;;;;;;;2.43;1.20;;;28.10;35.90;;;;;;5095645;28;20502;-66
2022/07/03 10:05:21;;;;;;;1.47;1.37;;;28.20;35.80;;;;;;5095649;28;20477;-67
2022/07/03 10:07:53;;;;;;;1.90;1.03;;;28.20;35.80;;;;;;5095037;28;20446;-66
2022/07/03 10:10:21;;;;;;;2.23;1.10;;;28.20;35.60;;;;;;5094876;28;20509;-66
2022/07/03 10:12:51;;;;;;;1.70;1.20;;;28.10;35.50;;;;;;5094961;28;20469;-68
2022/07/03 10:15:19;;;;;;;1.90;1.17;;;28.10;35.50;;;;;;5094906;28;20452;-66
2022/07/03 10:17:51;;;;;;;2.40;1.30;;;28.20;35.60;;;;;;5095093;28;20449;-65
2022/07/03 10:20:27;;;;;;;3.23;1.37;;;28.40;35.40;;;;;;5094725;28;20430;-65
2022/07/03 10:22:55;;;;;;;2.00;1.40;;;28.50;35.10;;;;;;5094700;28;20468;-65
2022/07/03 10:25:22;;;;;;;2.40;1.10;;;28.50;34.80;;;;;;5095075;28;20471;-65
2022/07/03 10:27:50;;;;;;;2.40;1.40;;;28.40;34.90;;;;;;5095520;28;20447;-65
2022/07/03 10:30:20;;;;;;;1.77;1.10;;;28.40;34.80;;;;;;5094623;28;20493;-64
2022/07/03 10:32:50;;;;;;;3.33;1.17;;;28.50;34.80;;;;;;5094775;28;20460;-65
2022/07/03 10:35:21;;;;;;;2.50;1.10;;;28.50;34.70;;;;;;5094306;28;20558;-65
2022/07/03 10:38:13;;;;;;;2.07;1.30;;;28.60;34.50;;;;;;5094276;28;20528;-65
2022/07/03 10:46:23;;;;;;;2.80;1.20;;;28.90;34.20;;;;;;5094502;28;20407;-65
2022/07/03 10:49:03;;;;;;;4.93;1.37;;;28.90;33.90;;;;;;5094448;28;20568;-65
2022/07/03 10:51:33;;;;;;;3.70;1.30;;;29.00;33.70;;;;;;5094136;28;20456;-66
2022/07/03 10:54:20;;;;;;;2.10;1.20;;;28.90;33.60;;;;;;5095345;28;20448;-66
2022/07/03 10:57:07;;;;;;;1.70;1.10;;;28.90;33.70;;;;;;5093761;28;20479;-66
2022/07/03 11:00:00;;;;;;;2.00;1.33;;;29.00;33.80;;;;;;5096086;28;20931;-65
2022/07/03 11:02:32;;;;;;;1.50;1.30;;;28.90;33.90;;;;;;5079442;28;20529;-66
2022/07/03 11:05:25;;;;;;;3.23;1.30;;;28.90;34.10;;;;;;5094438;28;20423;-65
2022/07/03 11:08:12;;;;;;;2.17;1.20;;;28.90;34.10;;;;;;5093842;28;20540;-64
2022/07/03 11:10:42;;;;;;;1.37;1.27;;;29.20;34.10;;;;;;5093812;28;20486;-64
2022/07/03 11:13:22;;;;;;;1.63;1.23;;;29.40;33.90;;;;;;5093874;28;20547;-64
2022/07/03 11:15:54;;;;;;;1.63;1.20;;;29.50;33.70;;;;;;5093775;28;20434;-64
2022/07/03 11:18:27;;;;;;;1.90;1.43;;;29.70;33.50;;;;;;5093108;28;20426;-65
2022/07/03 11:21:30;;;;;;;3.70;1.40;;;29.80;33.40;;;;;;5093407;28;20549;-64
2022/07/03 11:24:28;;;;;;;1.60;1.50;;;30.00;33.10;;;;;;5093487;28;20426;-65
2022/07/03 11:27:21;;;;;;;2.07;1.50;;;30.40;32.80;;;;;;5093065;28;20453;-65
2022/07/03 11:30:00;;;;;;;2.33;1.40;;;30.40;32.60;;;;;;5090354;28;20597;-65
2022/07/03 11:32:46;;;;;;;2.43;1.43;;;30.20;32.90;;;;;;5093450;28;20466;-65
2022/07/03 11:35:44;;;;;;;1.87;1.30;;;30.20;33.10;;;;;;5092998;28;20431;-63
2022/07/03 11:38:15;;;;;;;2.20;1.80;;;30.30;33.20;;;;;;5063966;28;20835;-64
2022/07/03 11:40:44;;;;;;;1.70;1.50;;;30.40;32.90;;;;;;5072777;28;20473;-64
2022/07/03 11:43:12;;;;;;;2.40;1.17;;;30.20;32.60;;;;;;5071478;28;20482;-65
2022/07/03 11:45:40;;;;;;;2.43;1.20;;;30.10;32.70;;;;;;5072866;28;20547;-65
2022/07/03 11:48:10;;;;;;;1.73;1.10;;;29.90;33.10;;;;;;5071596;28;20466;-65
2022/07/03 11:50:38;;;;;;;1.40;1.30;;;29.80;33.40;;;;;;5072950;28;20472;-65
2022/07/03 11:53:27;;;;;;;2.23;1.40;;;29.80;33.20;;;;;;5073489;28;20569;-64
2022/07/03 11:55:57;;;;;;;2.13;1.37;;;29.80;33.20;;;;;;5074084;28;20943;-65
2022/07/03 11:58:25;;;;;;;2.60;1.13;;;29.90;33.30;;;;;;5072843;28;20442;-64
2022/07/03 12:00:53;;;;;;;2.03;1.43;;;30.10;32.90;;;;;;5072996;28;20548;-64
2022/07/03 12:03:26;;;;;;;1.60;0.93;;;30.50;32.30;;;;;;5072663;28;20933;-63
2022/07/03 12:05:58;;;;;;;2.50;1.20;;;31.00;31.60;;;;;;5072371;28;20445;-65
2022/07/03 12:08:30;;;;;;;1.33;1.10;;;31.70;30.60;;;;;;5075509;28;20523;-64
2022/07/03 12:10:59;;;;;;;1.87;1.00;;;32.20;29.50;;;;;;5073098;28;20473;-65
2022/07/03 12:13:29;;;;;;;1.40;1.10;;;32.10;29.60;;;;;;5076497;28;20486;-65
2022/07/03 12:16:03;;;;;;;2.23;1.13;;;32.10;29.90;;;;;;5073069;28;20530;-65
2022/07/03 12:18:45;;;;;;;2.23;1.30;;;32.70;29.60;;;;;;5073565;28;20514;-65
2022/07/03 12:21:13;;;;;;;1.83;1.27;;;33.70;28.90;;;;;;5058875;28;20451;-64
2022/07/03 12:23:49;;;;;;;1.87;1.00;;;34.20;28.10;;;;;;5072439;28;20468;-65
2022/07/03 12:26:29;;;;;;;3.50;1.10;;;33.80;27.90;;;;;;5071939;28;20465;-64
2022/07/03 12:28:57;;;;;;;1.33;1.23;;;33.20;27.90;;;;;;5072752;28;20433;-65
2022/07/03 12:31:25;;;;;;;3.00;1.07;;;32.20;28.60;;;;;;5075673;28;20489;-64
2022/07/03 12:33:53;;;;;;;1.50;1.10;;;31.40;29.60;;;;;;5076819;28;20477;-65
2022/07/03 12:36:20;;;;;;;2.83;1.30;;;30.90;30.00;;;;;;5076746;28;20454;-65
2022/07/03 12:38:54;;;;;;;1.93;1.30;;;30.80;30.20;;;;;;5076656;28;20500;-65
2022/07/03 12:41:22;;;;;;;5.00;2.20;;;30.70;30.00;;;;;;5073179;28;20513;-63
2022/07/03 12:43:50;;;;;;;1.67;1.27;;;30.70;30.20;;;;;;5076143;28;20849;-63
2022/07/03 12:46:19;;;;;;;2.50;1.70;;;30.50;30.50;;;;;;5069680;28;20499;-64
2022/07/03 12:48:48;;;;;;;2.23;1.50;;;30.30;30.90;;;;;;5076684;28;20452;-64
2022/07/03 12:51:16;;;;;;;1.70;1.40;;;30.10;31.30;;;;;;5076332;28;20549;-65
2022/07/03 12:53:43;;;;;;;3.03;1.40;;;29.90;31.20;;;;;;5076386;28;20488;-65
2022/07/03 12:56:12;;;;;;;1.67;1.27;;;29.70;31.40;;;;;;5092929;28;20460;-65
2022/07/03 13:01:30;;;;;;;1.23;0.90;;;29.50;31.50;;;;;;5096301;28;20408;-64
2022/07/03 13:03:59;;;;;;;1.40;0.90;;;29.50;31.20;;;;;;5095206;28;20478;-63
2022/07/03 13:06:27;;;;;;;1.63;1.03;;;29.60;31.00;;;;;;5096315;28;20445;-64
2022/07/03 13:08:55;;;;;;;1.40;1.07;;;29.70;30.90;;;;;;5095926;28;20456;-65
2022/07/03 13:11:32;;;;;;;1.00;0.83;;;29.80;30.80;;;;;;5096022;28;20485;-65
2022/07/03 13:14:05;;;;;;;2.13;1.00;;;30.00;30.60;;;;;;5096289;28;20998;-65
2022/07/03 13:16:39;;;;;;;1.37;1.10;;;30.20;30.40;;;;;;5096704;28;20527;-64
2022/07/03 13:19:07;;;;;;;1.20;1.10;;;30.00;30.40;;;;;;5096130;28;20904;-65
2022/07/03 13:21:35;;;;;;;1.53;1.10;;;29.90;30.70;;;;;;5095787;28;20529;-64
2022/07/03 13:24:02;;;;;;;3.33;1.10;;;29.90;30.70;;;;;;5096293;28;20478;-65